Time;durP1;ratioP1;P1;durP2;ratioP2;P2;SDS_P1;SDS_P2;PMS_P1;PMS_P2;Temp;Humidity;BMP_temperature;BMP_pressure;BME280_temperature;BME280_humidity;BME280_pressure;Samples;Min_cycle;Max_cycle;Signal;HPM_P1;HPM_P2
2023/05/25 03:01:39;;;;;;;19.08;7.80;;;8.50;99.90;;;;;;5481896;23;20582;-76
2023/05/25 03:04:05;;;;;;;18.63;7.65;;;8.50;99.90;;;;;;4994036;28;20046;-74
2023/05/25 03:06:30;;;;;;;12.38;6.30;;;8.50;99.90;;;;;;4992329;28;20054;-74
2023/05/25 03:08:56;;;;;;;15.77;7.03;;;8.50;99.90;;;;;;4993429;28;20034;-72
2023/05/25 03:11:22;;;;;;;18.05;6.78;;;8.60;99.90;;;;;;4993429;28;20169;-72
2023/05/25 03:13:47;;;;;;;19.83;7.75;;;8.60;99.90;;;;;;4976133;28;20038;-73
2023/05/25 03:16:13;;;;;;;13.20;6.82;;;8.60;99.90;;;;;;4993630;28;20505;-72
2023/05/25 03:18:39;;;;;;;10.93;6.03;;;8.60;99.90;;;;;;4993962;28;20042;-73
2023/05/25 03:21:05;;;;;;;12.13;5.78;;;8.60;99.90;;;;;;4993184;28;20046;-74
2023/05/25 03:23:30;;;;;;;9.93;4.47;;;8.70;99.90;;;;;;4993074;28;20058;-72
2023/05/25 03:25:56;;;;;;;15.05;5.65;;;8.60;99.90;;;;;;4996195;28;20042;-73
2023/05/25 03:28:22;;;;;;;12.93;5.28;;;8.60;99.90;;;;;;4993001;28;20050;-73
2023/05/25 03:30:48;;;;;;;9.95;5.22;;;8.60;99.90;;;;;;4993619;28;20046;-74
2023/05/25 03:33:14;;;;;;;10.43;5.18;;;8.60;99.90;;;;;;4992187;28;20486;-73
2023/05/25 03:35:40;;;;;;;12.02;5.53;;;8.60;99.90;;;;;;4993261;28;20042;-74
2023/05/25 03:38:05;;;;;;;16.45;6.22;;;8.50;99.90;;;;;;4997321;28;20050;-72
2023/05/25 03:40:31;;;;;;;19.05;7.20;;;8.50;99.90;;;;;;4995801;28;20457;-72
2023/05/25 03:42:57;;;;;;;16.38;7.00;;;8.50;99.90;;;;;;4996878;28;20038;-71
2023/05/25 03:45:22;;;;;;;17.15;7.38;;;8.50;99.90;;;;;;4996035;28;20061;-78
2023/05/25 03:47:48;;;;;;;13.35;6.60;;;8.50;99.90;;;;;;4996313;28;20039;-79
2023/05/25 03:50:17;;;;;;;13.65;6.22;;;8.40;99.90;;;;;;4996240;28;20083;-73
2023/05/25 03:52:43;;;;;;;16.73;6.70;;;8.40;99.90;;;;;;4997227;28;20141;-75
2023/05/25 03:55:09;;;;;;;15.38;6.45;;;8.40;99.90;;;;;;4997080;28;20061;-75
2023/05/25 03:57:35;;;;;;;11.85;5.82;;;8.40;99.90;;;;;;4995432;28;20046;-74
2023/05/25 04:00:00;;;;;;;9.52;5.50;;;8.30;99.90;;;;;;4979026;28;20050;-72
2023/05/25 04:02:26;;;;;;;13.38;6.00;;;8.30;99.90;;;;;;4996380;28;20030;-74
2023/05/25 04:04:52;;;;;;;12.73;6.05;;;8.30;99.90;;;;;;4996667;28;20130;-75
2023/05/25 04:07:19;;;;;;;11.77;6.20;;;8.30;99.90;;;;;;4995217;28;20046;-74
2023/05/25 04:09:44;;;;;;;13.80;6.18;;;8.30;99.90;;;;;;4994873;28;20096;-75
2023/05/25 04:12:10;;;;;;;11.02;5.53;;;8.30;99.90;;;;;;4996857;28;20417;-73
2023/05/25 04:14:36;;;;;;;14.15;6.38;;;8.30;99.90;;;;;;4996755;28;20035;-75
2023/05/25 04:17:02;;;;;;;28.55;7.68;;;8.30;99.90;;;;;;4994950;28;20478;-74
2023/05/25 04:19:27;;;;;;;35.60;9.32;;;8.30;99.90;;;;;;4996235;28;20137;-74
2023/05/25 04:21:53;;;;;;;28.38;8.85;;;8.30;99.90;;;;;;4996028;28;20113;-74
2023/05/25 04:24:20;;;;;;;24.33;9.25;;;8.30;99.90;;;;;;4994810;28;20474;-75
2023/05/25 04:26:46;;;;;;;17.92;8.80;;;8.30;99.90;;;;;;4994958;28;20042;-74
2023/05/25 04:29:13;;;;;;;34.95;10.27;;;8.40;99.90;;;;;;4996442;28;20096;-72
2023/05/25 04:31:39;;;;;;;20.30;9.57;;;8.40;99.90;;;;;;4996177;28;20433;-73
2023/05/25 04:34:04;;;;;;;22.13;8.60;;;8.40;99.90;;;;;;4996502;28;20046;-73
2023/05/25 04:36:31;;;;;;;22.25;9.23;;;8.50;99.90;;;;;;4995177;28;20042;-77
2023/05/25 04:39:01;;;;;;;24.45;9.43;;;8.50;99.90;;;;;;4995939;28;20173;-73
2023/05/25 04:41:28;;;;;;;19.08;9.45;;;8.60;99.90;;;;;;4994470;28;20046;-74
2023/05/25 04:43:54;;;;;;;23.60;10.10;;;8.70;99.90;;;;;;4994576;28;20061;-74
2023/05/25 04:46:20;;;;;;;20.15;9.75;;;8.70;99.90;;;;;;4995109;28;20038;-73
2023/05/25 04:48:45;;;;;;;18.55;9.25;;;8.80;99.90;;;;;;4995362;28;20052;-75
2023/05/25 04:51:11;;;;;;;21.13;10.23;;;8.90;99.90;;;;;;4995136;28;20378;-74
2023/05/25 04:53:37;;;;;;;14.70;8.32;;;8.90;99.90;;;;;;4995696;28;20042;-74
2023/05/25 04:56:03;;;;;;;19.63;9.75;;;9.00;99.90;;;;;;4994450;28;20045;-75
2023/05/25 04:58:28;;;;;;;17.95;8.90;;;9.00;99.90;;;;;;4994776;28;20050;-74
2023/05/25 05:00:57;;;;;;;17.85;9.88;;;9.00;99.90;;;;;;4994205;28;20046;-75
2023/05/25 05:03:23;;;;;;;21.55;10.38;;;9.10;99.90;;;;;;4994427;28;20046;-74
2023/05/25 05:05:49;;;;;;;20.70;10.60;;;9.20;99.90;;;;;;4995487;28;20049;-73
2023/05/25 05:08:15;;;;;;;24.48;11.73;;;9.30;99.90;;;;;;4994285;28;20038;-74
2023/05/25 05:10:42;;;;;;;27.83;12.52;;;9.30;99.90;;;;;;4994167;28;20089;-73
2023/05/25 05:13:07;;;;;;;25.55;10.80;;;9.30;99.90;;;;;;4977895;28;20046;-76
2023/05/25 05:15:33;;;;;;;29.13;12.07;;;9.40;99.90;;;;;;4995491;28;20038;-76
2023/05/25 05:17:59;;;;;;;19.60;11.32;;;9.50;99.90;;;;;;4994180;28;20085;-74
2023/05/25 05:20:24;;;;;;;24.77;11.93;;;9.50;99.90;;;;;;4995371;28;20121;-74
2023/05/25 05:22:52;;;;;;;29.80;12.15;;;9.50;99.90;;;;;;4994009;28;20089;-74
2023/05/25 05:25:17;;;;;;;28.80;12.65;;;9.60;99.90;;;;;;4994211;28;20121;-76
2023/05/25 05:27:43;;;;;;;31.85;14.27;;;9.70;99.90;;;;;;4994028;28;20117;-73
2023/05/25 05:30:09;;;;;;;30.67;15.07;;;9.70;99.90;;;;;;4994187;28;20043;-73
2023/05/25 05:32:34;;;;;;;33.58;14.73;;;9.80;99.90;;;;;;4994867;28;20101;-73
2023/05/25 05:35:00;;;;;;;30.73;13.98;;;9.90;99.90;;;;;;4977547;28;20038;-76
2023/05/25 05:37:26;;;;;;;31.25;14.93;;;9.90;99.90;;;;;;4993626;28;20038;-76
2023/05/25 05:39:52;;;;;;;29.83;13.18;;;10.00;99.90;;;;;;4993766;28;20042;-75
2023/05/25 05:42:18;;;;;;;31.23;13.48;;;10.10;99.90;;;;;;4993666;28;20061;-77
2023/05/25 05:44:43;;;;;;;29.92;14.23;;;10.10;99.90;;;;;;4993627;28;20038;-76
2023/05/25 05:47:09;;;;;;;34.13;14.38;;;10.20;99.90;;;;;;4993618;28;20128;-76
2023/05/25 05:49:37;;;;;;;27.95;13.70;;;10.30;99.90;;;;;;4995335;28;20460;-75
2023/05/25 05:52:02;;;;;;;31.95;13.93;;;10.30;99.90;;;;;;4993833;28;20366;-74
2023/05/25 05:54:28;;;;;;;32.78;14.73;;;10.40;99.90;;;;;;4993680;28;20054;-73
2023/05/25 05:56:54;;;;;;;30.58;14.77;;;10.40;99.90;;;;;;4994824;28;20477;-73
2023/05/25 05:59:21;;;;;;;30.15;14.63;;;10.50;99.90;;;;;;4994525;28;20451;-74
2023/05/25 06:01:46;;;;;;;44.35;16.80;;;10.60;99.90;;;;;;4993093;28;20046;-75
2023/05/25 06:04:13;;;;;;;30.73;15.30;;;10.60;99.90;;;;;;4993535;28;20046;-75
2023/05/25 06:06:40;;;;;;;29.98;13.93;;;10.70;99.90;;;;;;4993179;28;20442;-75
2023/05/25 06:09:06;;;;;;;27.83;14.32;;;10.80;99.90;;;;;;4993192;28;20054;-75
2023/05/25 06:11:35;;;;;;;31.80;14.90;;;10.80;99.90;;;;;;4993218;28;20129;-76
2023/05/25 06:14:01;;;;;;;35.00;15.10;;;10.90;99.90;;;;;;4976924;28;20042;-76
2023/05/25 06:16:26;;;;;;;29.65;14.95;;;10.90;99.90;;;;;;4994398;28;20421;-75
2023/05/25 06:18:52;;;;;;;33.45;13.98;;;11.00;99.90;;;;;;4994093;28;20049;-76
2023/05/25 06:21:18;;;;;;;28.58;13.23;;;11.10;99.90;;;;;;4992917;28;20133;-76
2023/05/25 06:23:43;;;;;;;30.48;13.50;;;11.20;99.90;;;;;;4992946;28;20072;-73
2023/05/25 06:26:09;;;;;;;32.22;12.75;;;11.30;99.90;;;;;;4992897;28;20050;-74
2023/05/25 06:28:35;;;;;;;27.65;12.32;;;11.40;99.90;;;;;;4992865;28;20129;-74
2023/05/25 06:31:01;;;;;;;26.35;12.75;;;11.50;99.90;;;;;;4992738;28;20042;-74
2023/05/25 06:33:26;;;;;;;29.27;13.02;;;11.60;99.90;;;;;;4992835;28;20046;-74
2023/05/25 06:35:55;;;;;;;27.85;12.07;;;11.60;99.90;;;;;;4992934;28;20050;-74
2023/05/25 06:38:21;;;;;;;22.20;11.20;;;11.80;99.90;;;;;;4993099;28;20445;-75
2023/05/25 06:40:46;;;;;;;23.13;11.15;;;11.80;99.90;;;;;;4992645;28;20050;-74
2023/05/25 06:43:12;;;;;;;23.00;11.20;;;12.00;99.90;;;;;;4993874;28;20121;-73
2023/05/25 06:45:37;;;;;;;19.05;10.13;;;12.10;99.90;;;;;;4992620;28;20477;-73
2023/05/25 06:48:03;;;;;;;20.90;9.65;;;12.20;99.90;;;;;;4992857;28;20042;-73
2023/05/25 06:50:29;;;;;;;29.60;11.38;;;12.20;99.90;;;;;;4993942;28;20038;-75
2023/05/25 06:52:54;;;;;;;25.05;10.07;;;12.30;99.90;;;;;;4992734;28;20042;-73
2023/05/25 06:55:20;;;;;;;25.48;11.25;;;12.40;99.90;;;;;;4992726;28;20046;-75
2023/05/25 06:57:46;;;;;;;25.33;10.05;;;12.50;99.90;;;;;;4994015;28;20134;-74
2023/05/25 07:00:12;;;;;;;20.90;9.32;;;12.60;99.90;;;;;;4976612;28;20042;-75
2023/05/25 07:02:38;;;;;;;24.70;10.23;;;12.70;99.90;;;;;;4992749;28;20039;-75
2023/05/25 07:05:05;;;;;;;19.95;9.02;;;12.80;99.90;;;;;;4976496;28;20046;-74
2023/05/25 07:07:33;;;;;;;16.40;8.18;;;12.90;99.90;;;;;;4994301;28;20470;-76
2023/05/25 07:10:02;;;;;;;20.20;7.55;;;13.00;99.90;;;;;;4977106;28;20426;-76
2023/05/25 07:12:27;;;;;;;18.70;7.55;;;13.00;99.90;;;;;;4996688;28;20054;-74
2023/05/25 07:14:53;;;;;;;21.35;7.40;;;13.10;99.90;;;;;;4996893;28;20034;-76
2023/05/25 07:17:20;;;;;;;15.77;6.53;;;13.10;99.90;;;;;;4997352;28;20486;-75
2023/05/25 07:19:47;;;;;;;19.63;6.53;;;13.20;99.90;;;;;;4997973;28;20077;-75
2023/05/25 07:22:15;;;;;;;19.77;6.40;;;13.30;99.90;;;;;;4996358;28;20120;-74
2023/05/25 07:24:41;;;;;;;13.05;5.63;;;13.30;99.90;;;;;;4996293;28;20057;-74
2023/05/25 07:27:07;;;;;;;15.77;5.70;;;13.30;99.90;;;;;;4996731;28;20038;-73
2023/05/25 07:29:32;;;;;;;15.50;5.13;;;13.40;99.90;;;;;;4997352;28;20049;-72
2023/05/25 07:31:58;;;;;;;13.52;5.32;;;13.40;99.90;;;;;;4995929;28;20068;-75
2023/05/25 07:34:24;;;;;;;15.90;5.78;;;13.50;99.90;;;;;;4979926;28;20069;-73
2023/05/25 07:36:49;;;;;;;16.63;5.05;;;13.50;99.90;;;;;;4996384;28;20081;-75
2023/05/25 07:39:15;;;;;;;16.23;5.13;;;13.60;99.90;;;;;;4979928;28;20084;-74
2023/05/25 07:41:41;;;;;;;15.13;4.75;;;13.70;99.90;;;;;;4979637;28;20050;-74
2023/05/25 07:44:06;;;;;;;12.57;4.38;;;13.80;99.90;;;;;;4997660;28;20042;-73
2023/05/25 07:46:32;;;;;;;16.83;4.80;;;13.80;99.90;;;;;;4997274;28;20042;-75
2023/05/25 07:48:58;;;;;;;16.95;4.32;;;13.80;99.90;;;;;;4995767;28;20042;-73
2023/05/25 07:51:27;;;;;;;14.98;4.45;;;13.80;99.90;;;;;;4997158;28;20093;-75
2023/05/25 07:53:55;;;;;;;21.83;4.90;;;13.70;99.90;;;;;;4979665;28;20046;-74
2023/05/25 07:56:21;;;;;;;15.68;4.20;;;13.70;99.90;;;;;;4995826;28;20093;-75
2023/05/25 07:58:47;;;;;;;12.77;4.03;;;13.70;99.90;;;;;;4996403;28;20050;-79
2023/05/25 08:01:13;;;;;;;17.63;4.47;;;13.70;99.90;;;;;;4996402;28;20449;-77
2023/05/25 08:03:39;;;;;;;15.18;3.95;;;13.80;99.90;;;;;;4980676;28;20100;-79
2023/05/25 08:06:05;;;;;;;11.95;3.70;;;13.90;99.90;;;;;;4997677;28;20053;-76
2023/05/25 08:08:31;;;;;;;12.00;3.92;;;14.00;99.90;;;;;;4997556;28;20096;-78
2023/05/25 08:10:56;;;;;;;13.25;3.65;;;14.10;99.90;;;;;;4995835;28;20042;-75
2023/05/25 08:13:22;;;;;;;17.17;5.03;;;14.10;99.90;;;;;;4995964;28;20102;-74
2023/05/25 08:15:48;;;;;;;14.43;3.40;;;14.30;99.90;;;;;;4996631;28;20030;-73
2023/05/25 08:18:14;;;;;;;14.80;4.82;;;14.30;99.90;;;;;;4995223;28;20105;-74
2023/05/25 08:20:40;;;;;;;16.38;4.15;;;14.30;99.90;;;;;;4996725;28;20038;-75
2023/05/25 08:23:07;;;;;;;17.77;3.58;;;14.40;99.90;;;;;;4996531;28;20042;-74
2023/05/25 08:25:32;;;;;;;14.45;4.32;;;14.50;99.90;;;;;;4995164;28;20043;-74
2023/05/25 08:27:58;;;;;;;12.85;3.58;;;14.60;99.90;;;;;;4995717;28;20129;-74
2023/05/25 08:30:24;;;;;;;13.82;3.80;;;14.60;99.90;;;;;;4995352;28;20082;-76
2023/05/25 08:32:49;;;;;;;18.77;4.07;;;14.70;99.90;;;;;;4995110;28;20113;-74
2023/05/25 08:35:16;;;;;;;21.00;5.30;;;14.80;99.90;;;;;;4995064;28;20050;-74
2023/05/25 08:37:42;;;;;;;14.05;4.28;;;14.90;99.90;;;;;;4995062;28;20039;-74
2023/05/25 08:40:15;;;;;;;14.05;3.55;;;14.90;99.90;;;;;;4995085;28;20476;-74
2023/05/25 08:42:45;;;;;;;16.45;3.92;;;15.10;99.90;;;;;;4996216;28;20045;-75
2023/05/25 08:45:11;;;;;;;14.20;4.32;;;15.10;99.90;;;;;;4994174;28;20057;-76
2023/05/25 08:47:42;;;;;;;14.48;3.65;;;15.10;99.90;;;;;;4994958;28;20042;-75
2023/05/25 08:50:09;;;;;;;18.48;4.03;;;15.20;99.90;;;;;;4978679;28;20462;-75
2023/05/25 08:52:37;;;;;;;19.27;4.18;;;15.30;99.90;;;;;;4994825;28;20077;-77
2023/05/25 08:55:07;;;;;;;19.15;4.93;;;15.30;99.90;;;;;;4994622;28;20088;-75
2023/05/25 08:57:58;;;;;;;15.60;3.90;;;15.20;99.90;;;;;;4995332;28;20161;-75
2023/05/25 09:00:29;;;;;;;14.95;3.92;;;15.10;99.90;;;;;;4995528;28;20105;-75
2023/05/25 09:03:24;;;;;;;19.27;3.75;;;15.00;99.90;;;;;;4995483;28;20058;-76
2023/05/25 09:05:50;;;;;;;19.30;4.30;;;14.90;99.90;;;;;;4982419;28;20046;-77
2023/05/25 09:08:16;;;;;;;18.08;4.35;;;14.70;99.90;;;;;;4994427;28;20101;-77
2023/05/25 09:10:42;;;;;;;19.13;4.43;;;14.70;99.90;;;;;;4978288;28;20486;-77
2023/05/25 09:13:08;;;;;;;24.67;4.85;;;14.50;99.90;;;;;;4996093;28;20069;-76
2023/05/25 09:15:34;;;;;;;21.90;4.53;;;14.40;99.90;;;;;;4978442;28;20053;-76
2023/05/25 09:18:00;;;;;;;21.05;4.72;;;14.40;99.90;;;;;;4994441;28;20132;-76
2023/05/25 09:20:32;;;;;;;20.42;4.65;;;14.30;99.90;;;;;;4995682;28;20034;-76
2023/05/25 09:23:02;;;;;;;25.40;4.60;;;14.30;99.90;;;;;;4994394;28;20042;-75
2023/05/25 09:25:29;;;;;;;20.15;4.47;;;14.40;99.90;;;;;;4996061;28;20038;-76
2023/05/25 09:27:58;;;;;;;18.15;4.32;;;14.50;99.90;;;;;;4994059;28;20545;-76
2023/05/25 09:30:26;;;;;;;20.40;4.65;;;14.60;99.90;;;;;;4995261;28;20549;-75
2023/05/25 09:32:52;;;;;;;19.13;4.88;;;14.80;99.90;;;;;;4993545;28;20077;-74
2023/05/25 09:35:18;;;;;;;18.63;4.47;;;15.00;99.90;;;;;;4995411;28;20034;-76
2023/05/25 09:37:44;;;;;;;26.20;5.68;;;15.10;99.90;;;;;;4995442;28;20042;-77
2023/05/25 09:40:10;;;;;;;20.25;4.65;;;15.10;99.90;;;;;;4993792;28;20042;-75
2023/05/25 09:42:37;;;;;;;17.75;4.38;;;15.10;99.90;;;;;;4994137;28;20475;-79
2023/05/25 09:45:04;;;;;;;21.05;4.50;;;15.10;99.90;;;;;;4993501;28;20121;-76
2023/05/25 09:47:30;;;;;;;17.80;3.83;;;15.20;99.90;;;;;;4993901;28;20065;-76
2023/05/25 09:49:55;;;;;;;19.77;3.92;;;15.40;99.90;;;;;;4994931;28;20466;-75
2023/05/25 09:52:21;;;;;;;26.85;4.50;;;15.50;99.90;;;;;;4977354;28;20117;-75
2023/05/25 09:54:49;;;;;;;18.50;3.72;;;15.50;99.90;;;;;;4993961;28;20042;-76
2023/05/25 09:57:15;;;;;;;20.42;5.22;;;15.80;99.90;;;;;;4993300;28;20162;-76
2023/05/25 09:59:43;;;;;;;19.27;4.68;;;16.20;99.90;;;;;;4994217;28;20049;-77
2023/05/25 10:02:10;;;;;;;17.60;3.90;;;16.40;99.90;;;;;;4993386;28;20116;-77
2023/05/25 10:04:35;;;;;;;16.90;4.28;;;16.60;99.90;;;;;;4994273;28;20053;-77
2023/05/25 10:07:03;;;;;;;18.88;4.45;;;16.70;99.90;;;;;;4993814;28;20034;-78
2023/05/25 10:09:29;;;;;;;17.77;4.53;;;16.60;99.90;;;;;;4995162;28;20096;-77
2023/05/25 10:12:00;;;;;;;22.52;5.43;;;16.50;99.90;;;;;;4993971;28;20042;-77
2023/05/25 10:14:27;;;;;;;15.30;3.75;;;16.60;99.90;;;;;;4993720;28;20049;-78
2023/05/25 10:16:54;;;;;;;17.00;4.20;;;17.00;99.90;;;;;;4995265;28;20085;-78
2023/05/25 10:19:25;;;;;;;19.30;4.68;;;17.10;99.90;;;;;;4993592;28;20058;-76
2023/05/25 10:22:06;;;;;;;21.55;4.35;;;17.20;99.90;;;;;;4993899;28;20425;-79
2023/05/25 10:24:48;;;;;;;25.73;4.60;;;17.00;99.90;;;;;;4993693;28;20054;-78
2023/05/25 10:27:18;;;;;;;18.90;3.97;;;16.90;99.90;;;;;;4993324;28;20044;-75
2023/05/25 10:29:47;;;;;;;20.45;3.88;;;16.70;99.90;;;;;;4994040;28;20097;-76
2023/05/25 10:32:15;;;;;;;25.70;4.13;;;16.60;99.90;;;;;;4993315;28;20044;-75
2023/05/25 10:34:41;;;;;;;18.70;3.63;;;16.70;99.90;;;;;;4993031;28;20049;-78
2023/05/25 10:37:07;;;;;;;18.67;3.67;;;16.90;99.90;;;;;;4994271;28;20042;-80
2023/05/25 10:39:34;;;;;;;20.55;4.22;;;17.30;99.90;;;;;;4994060;28;20047;-78
2023/05/25 10:42:02;;;;;;;18.98;4.80;;;17.40;99.90;;;;;;4994007;28;20058;-77
2023/05/25 10:44:29;;;;;;;23.67;4.10;;;17.40;99.90;;;;;;4992449;28;20101;-77
2023/05/25 10:46:57;;;;;;;19.38;3.72;;;17.20;99.90;;;;;;4993039;28;20403;-78
2023/05/25 10:49:34;;;;;;;19.08;4.32;;;17.10;99.90;;;;;;4994128;28;20046;-77
2023/05/25 10:52:01;;;;;;;21.77;4.45;;;17.00;99.90;;;;;;4993203;28;20049;-77
2023/05/25 10:54:32;;;;;;;23.40;4.65;;;16.90;99.90;;;;;;4992810;28;20046;-75
2023/05/25 10:57:08;;;;;;;22.70;4.60;;;16.90;99.90;;;;;;4967819;28;20540;-76
2023/05/25 10:59:34;;;;;;;20.58;4.55;;;17.20;99.90;;;;;;4962946;28;20514;-76
2023/05/25 11:02:05;;;;;;;23.70;4.95;;;17.40;99.90;;;;;;4962266;28;20043;-76
2023/05/25 11:04:35;;;;;;;15.57;3.65;;;17.30;99.90;;;;;;4962395;28;20043;-75
2023/05/25 11:07:01;;;;;;;18.95;4.25;;;17.30;99.90;;;;;;4963072;28;20059;-79
2023/05/25 11:09:30;;;;;;;27.58;5.22;;;17.30;99.90;;;;;;4962722;28;20488;-77
2023/05/25 11:11:57;;;;;;;17.50;4.72;;;17.50;99.90;;;;;;4945756;28;20432;-77
2023/05/25 11:14:26;;;;;;;19.17;4.13;;;17.80;99.90;;;;;;4957415;28;20574;-77
2023/05/25 11:17:06;;;;;;;22.90;4.15;;;17.90;99.90;;;;;;4953629;29;20047;-76
2023/05/25 11:19:43;;;;;;;18.55;4.35;;;17.90;99.90;;;;;;4955231;28;20058;-74
2023/05/25 11:22:29;;;;;;;20.90;4.97;;;18.10;99.90;;;;;;4955256;28;20075;-76
2023/05/25 11:24:57;;;;;;;20.50;4.55;;;18.20;99.90;;;;;;4954006;29;20043;-77
2023/05/25 11:27:23;;;;;;;19.33;4.88;;;18.10;99.90;;;;;;4954920;28;20070;-75
2023/05/25 11:29:50;;;;;;;21.25;4.72;;;18.00;99.90;;;;;;4955346;29;20139;-80
2023/05/25 11:32:16;;;;;;;15.82;3.85;;;18.00;99.90;;;;;;4953668;28;20051;-75
2023/05/25 11:34:45;;;;;;;17.90;4.05;;;18.20;99.90;;;;;;4955074;28;20061;-79
2023/05/25 11:37:20;;;;;;;20.33;4.80;;;18.30;99.90;;;;;;4955283;28;20039;-77
2023/05/25 11:39:50;;;;;;;18.98;4.43;;;18.30;99.90;;;;;;4953615;29;20071;-75
2023/05/25 11:42:18;;;;;;;13.40;3.83;;;18.50;99.90;;;;;;4953652;29;20051;-75
2023/05/25 11:44:44;;;;;;;24.30;5.25;;;18.60;99.90;;;;;;4953539;29;20089;-75
2023/05/25 11:47:13;;;;;;;18.75;4.90;;;18.60;99.90;;;;;;4953865;29;20071;-76
2023/05/25 11:49:46;;;;;;;19.83;4.53;;;18.50;99.90;;;;;;4953560;29;20051;-75
2023/05/25 11:52:19;;;;;;;22.10;4.57;;;18.50;99.90;;;;;;4953659;29;20062;-76
2023/05/25 11:54:45;;;;;;;18.35;4.10;;;18.50;99.90;;;;;;4954056;29;20391;-77
2023/05/25 11:57:19;;;;;;;23.92;5.65;;;18.50;99.90;;;;;;4955696;28;20070;-77
2023/05/25 11:59:49;;;;;;;24.55;4.65;;;18.60;99.90;;;;;;4957100;28;20053;-78
2023/05/25 12:02:16;;;;;;;17.52;4.43;;;18.70;99.90;;;;;;4958057;28;20051;-76
2023/05/25 12:04:52;;;;;;;20.95;5.22;;;18.90;99.90;;;;;;4957058;29;20050;-77
2023/05/25 12:07:18;;;;;;;24.00;4.70;;;18.80;99.90;;;;;;4957127;29;20044;-77
2023/05/25 12:09:44;;;;;;;26.63;5.00;;;18.80;99.90;;;;;;4956863;28;20062;-75
2023/05/25 12:12:10;;;;;;;18.10;4.28;;;18.90;99.90;;;;;;4956870;29;20122;-76
2023/05/25 12:14:46;;;;;;;19.52;4.78;;;19.00;99.90;;;;;;4956527;28;20444;-76
2023/05/25 12:17:12;;;;;;;22.30;4.70;;;19.20;99.90;;;;;;4958205;28;20118;-75
2023/05/25 12:19:38;;;;;;;21.88;4.10;;;19.20;99.90;;;;;;4958210;28;20070;-75
2023/05/25 12:22:03;;;;;;;20.55;4.43;;;19.30;99.90;;;;;;4958529;28;20103;-73
2023/05/25 12:24:29;;;;;;;20.70;4.05;;;19.30;99.90;;;;;;4940733;29;20082;-76
2023/05/25 12:26:58;;;;;;;22.98;4.38;;;19.60;99.90;;;;;;4956967;28;20126;-76
2023/05/25 12:29:25;;;;;;;23.25;4.63;;;19.80;99.90;;;;;;4940704;29;20047;-74
2023/05/25 12:31:51;;;;;;;19.27;4.70;;;19.70;99.90;;;;;;4958339;28;20039;-75
2023/05/25 12:34:18;;;;;;;22.70;5.15;;;19.60;99.90;;;;;;4957856;29;20039;-77
2023/05/25 12:37:02;;;;;;;16.23;3.55;;;19.50;99.90;;;;;;4956462;28;20559;-77
2023/05/25 12:39:28;;;;;;;18.02;4.47;;;19.50;99.90;;;;;;4956756;29;20106;-74
2023/05/25 12:41:54;;;;;;;18.63;4.35;;;19.60;99.90;;;;;;4956132;29;20154;-77
2023/05/25 12:44:30;;;;;;;19.70;4.75;;;19.60;99.90;;;;;;4957860;28;20035;-76
2023/05/25 12:47:08;;;;;;;18.85;4.63;;;19.60;99.90;;;;;;4956415;29;20125;-76
2023/05/25 12:49:34;;;;;;;16.95;3.95;;;19.50;99.90;;;;;;4956208;29;20086;-77
2023/05/25 12:52:02;;;;;;;19.38;4.05;;;19.40;99.90;;;;;;4956313;29;20050;-77
2023/05/25 12:54:45;;;;;;;17.92;4.32;;;19.50;99.90;;;;;;4955742;29;20047;-73
2023/05/25 12:57:17;;;;;;;19.88;4.43;;;19.60;99.90;;;;;;4955916;29;20050;-73
2023/05/25 12:59:44;;;;;;;16.75;4.25;;;19.70;99.90;;;;;;4957533;28;20039;-76
2023/05/25 13:02:12;;;;;;;16.70;4.75;;;19.80;99.90;;;;;;4955655;28;20496;-74
2023/05/25 13:04:39;;;;;;;22.42;4.63;;;19.90;99.90;;;;;;4955991;29;20063;-76
2023/05/25 13:07:07;;;;;;;20.48;3.50;;;20.00;99.90;;;;;;4955647;28;20163;-75
2023/05/25 13:09:33;;;;;;;18.88;4.13;;;20.00;99.90;;;;;;4955228;28;20483;-75
2023/05/25 13:12:01;;;;;;;17.65;4.00;;;20.10;99.90;;;;;;4956142;29;20039;-76
2023/05/25 13:14:28;;;;;;;18.95;4.05;;;20.20;99.70;;;;;;4957215;28;20079;-76
2023/05/25 13:16:55;;;;;;;21.48;4.75;;;20.20;99.40;;;;;;4955865;28;20042;-77
2023/05/25 13:19:24;;;;;;;16.27;3.90;;;20.20;99.50;;;;;;4957159;28;20051;-76
2023/05/25 13:21:50;;;;;;;15.02;3.78;;;20.40;99.50;;;;;;4956725;28;20039;-74
2023/05/25 13:24:20;;;;;;;13.40;3.45;;;20.50;99.50;;;;;;4956927;28;20492;-77
2023/05/25 13:26:46;;;;;;;21.65;4.10;;;20.60;99.00;;;;;;4957147;28;20042;-77
2023/05/25 13:29:12;;;;;;;18.85;4.53;;;20.50;98.40;;;;;;4956579;29;20480;-74
2023/05/25 13:31:38;;;;;;;18.02;3.80;;;20.50;98.50;;;;;;4955351;28;20046;-78
2023/05/25 13:34:04;;;;;;;20.42;4.72;;;20.50;98.50;;;;;;4956336;29;20043;-75
2023/05/25 13:36:31;;;;;;;15.63;3.85;;;20.50;98.30;;;;;;4955257;28;20050;-77
2023/05/25 13:38:58;;;;;;;22.73;4.47;;;20.60;97.80;;;;;;4939210;29;20051;-76
2023/05/25 13:41:23;;;;;;;18.05;3.78;;;20.60;98.00;;;;;;4939639;29;20062;-76
2023/05/25 13:43:49;;;;;;;18.30;4.38;;;20.60;97.60;;;;;;4955204;28;20047;-74
2023/05/25 13:46:15;;;;;;;19.33;4.53;;;20.60;96.60;;;;;;4955468;28;20217;-75
2023/05/25 13:48:46;;;;;;;18.48;4.38;;;20.50;96.40;;;;;;4955168;29;20044;-75
2023/05/25 13:51:15;;;;;;;20.30;4.65;;;20.50;96.30;;;;;;4956578;28;20424;-76
2023/05/25 13:53:42;;;;;;;17.80;4.60;;;20.40;95.80;;;;;;4955353;28;20388;-74
2023/05/25 13:56:08;;;;;;;18.42;4.35;;;20.40;96.00;;;;;;4954861;29;20117;-76
2023/05/25 13:58:35;;;;;;;16.30;3.88;;;20.40;96.40;;;;;;4956155;29;20039;-75
2023/05/25 14:01:02;;;;;;;21.60;4.53;;;20.30;96.30;;;;;;4956387;28;20102;-74
2023/05/25 14:03:27;;;;;;;23.55;4.88;;;20.30;95.90;;;;;;4955134;29;20114;-76
2023/05/25 14:05:53;;;;;;;18.38;4.18;;;20.30;95.90;;;;;;4955601;29;20460;-76
2023/05/25 14:08:19;;;;;;;19.65;4.53;;;20.30;96.00;;;;;;4955086;28;20079;-76
2023/05/25 14:10:45;;;;;;;21.63;4.65;;;20.40;96.30;;;;;;4956237;29;20398;-77
2023/05/25 14:13:10;;;;;;;17.02;4.07;;;20.50;96.60;;;;;;4956600;29;20114;-79
2023/05/25 14:15:36;;;;;;;23.58;4.50;;;20.60;96.50;;;;;;4955248;28;20047;-78
2023/05/25 14:18:02;;;;;;;21.30;4.82;;;20.90;96.50;;;;;;4956053;28;20491;-76
2023/05/25 14:20:27;;;;;;;19.40;4.28;;;20.70;96.10;;;;;;4955690;28;20070;-77
2023/05/25 14:22:53;;;;;;;21.20;4.88;;;20.80;95.90;;;;;;4954689;28;20043;-77
2023/05/25 14:25:19;;;;;;;25.08;4.78;;;20.80;95.50;;;;;;4956284;29;20410;-76
2023/05/25 14:27:45;;;;;;;21.70;4.70;;;20.80;95.30;;;;;;4954733;28;20097;-75
2023/05/25 14:30:11;;;;;;;15.90;4.10;;;20.80;95.30;;;;;;4956042;28;20043;-78
2023/05/25 14:32:36;;;;;;;21.88;4.60;;;20.80;95.40;;;;;;4954512;28;20069;-76
2023/05/25 14:35:02;;;;;;;19.02;4.20;;;20.80;94.80;;;;;;4955190;29;20062;-77
2023/05/25 14:37:28;;;;;;;19.98;5.00;;;20.80;94.30;;;;;;4954810;28;20083;-75
2023/05/25 14:39:54;;;;;;;22.65;4.93;;;20.80;94.40;;;;;;4956018;28;20399;-75
2023/05/25 14:42:19;;;;;;;22.98;4.75;;;20.70;94.20;;;;;;4954652;29;20117;-76
2023/05/25 14:44:45;;;;;;;21.55;4.13;;;20.70;94.20;;;;;;4954933;29;20047;-78
2023/05/25 14:47:11;;;;;;;19.80;4.68;;;20.70;94.60;;;;;;4955853;28;20075;-77
2023/05/25 14:49:36;;;;;;;20.55;4.30;;;20.60;94.60;;;;;;4954520;29;20476;-76
2023/05/25 14:52:02;;;;;;;19.83;4.63;;;20.80;94.70;;;;;;4954335;28;20488;-77
2023/05/25 14:54:28;;;;;;;18.95;5.07;;;20.70;95.00;;;;;;4954523;29;20090;-77
2023/05/25 14:56:54;;;;;;;20.58;4.82;;;20.40;94.40;;;;;;4955603;28;20035;-77
2023/05/25 14:59:19;;;;;;;21.92;4.70;;;20.30;94.50;;;;;;4953918;28;20415;-79
2023/05/25 15:01:45;;;;;;;24.17;5.25;;;20.20;94.50;;;;;;4953665;28;20087;-75
2023/05/25 15:04:12;;;;;;;23.63;5.15;;;20.00;94.40;;;;;;4954110;28;20047;-76
2023/05/25 15:06:38;;;;;;;21.33;5.00;;;20.10;94.60;;;;;;4954102;29;20533;-76
2023/05/25 15:09:05;;;;;;;20.88;5.22;;;20.10;94.10;;;;;;4954260;28;20093;-74
2023/05/25 15:11:30;;;;;;;20.83;4.32;;;20.10;94.00;;;;;;4938114;29;20478;-77
2023/05/25 15:13:57;;;;;;;18.45;4.38;;;20.20;94.50;;;;;;4955791;28;20036;-78
2023/05/25 15:16:23;;;;;;;22.60;5.45;;;20.10;94.50;;;;;;4954188;29;20105;-77
2023/05/25 15:18:50;;;;;;;22.65;4.57;;;19.90;94.30;;;;;;4954345;29;20106;-78
2023/05/25 15:21:16;;;;;;;19.13;4.55;;;19.80;94.40;;;;;;4954068;29;20051;-77
2023/05/25 15:23:41;;;;;;;22.52;4.28;;;19.80;94.30;;;;;;4955418;28;20118;-78
2023/05/25 15:26:10;;;;;;;24.20;5.68;;;19.80;94.60;;;;;;4954874;28;20035;-78
2023/05/25 15:28:36;;;;;;;23.00;6.03;;;19.80;94.60;;;;;;4955555;29;20048;-76
2023/05/25 15:31:02;;;;;;;21.20;5.07;;;19.90;94.50;;;;;;4956566;28;20039;-76
2023/05/25 15:33:27;;;;;;;19.02;5.00;;;20.00;94.30;;;;;;4960479;28;20542;-74
2023/05/25 15:35:53;;;;;;;21.40;5.40;;;20.00;94.40;;;;;;4957979;28;20132;-75
2023/05/25 15:38:19;;;;;;;21.05;5.63;;;20.10;94.30;;;;;;4959545;28;20411;-77